TimeEDT,TemperatureF,Dew PointF,Humidity,Sea Level PressureIn,VisibilityMPH,Wind Direction,Wind SpeedMPH,Gust SpeedMPH,PrecipitationIn,Events,Conditions,WindDirDegrees,DateUTC
12:51 AM,55.0,46.0,72,29.94,-9999.0,Calm,Calm,-,N/A,,Unknown,0,2013-06-30 04:51:00
1:51 AM,53.1,46.0,77,29.95,-9999.0,Calm,Calm,-,N/A,,Unknown,0,2013-06-30 05:51:00
2:51 AM,51.1,48.0,89,29.95,-9999.0,Calm,Calm,-,N/A,,Unknown,0,2013-06-30 06:51:00
3:51 AM,50.0,46.0,86,29.96,-9999.0,West,3.5,-,N/A,,Unknown,260,2013-06-30 07:51:00
4:51 AM,48.0,45.0,89,29.97,-9999.0,Calm,Calm,-,N/A,,Unknown,0,2013-06-30 08:51:00
5:51 AM,48.0,45.0,89,29.99,-9999.0,Calm,Calm,-,N/A,,Unknown,0,2013-06-30 09:51:00
6:51 AM,48.9,45.0,86,30.00,-9999.0,WSW,4.6,-,N/A,,Unknown,250,2013-06-30 10:51:00
7:51 AM,54.0,48.0,80,30.01,-9999.0,Calm,Calm,-,N/A,,Unknown,0,2013-06-30 11:51:00
8:51 AM,57.0,46.9,69,30.02,-9999.0,North,3.5,-,N/A,,Unknown,360,2013-06-30 12:51:00
9:51 AM,54.0,48.9,83,30.03,-9999.0,North,6.9,-,N/A,,Unknown,350,2013-06-30 13:51:00
10:51 AM,55.9,50.0,80,30.04,-9999.0,North,12.7,-,N/A,,Unknown,360,2013-06-30 14:51:00
11:51 AM,55.0,48.9,80,30.04,-9999.0,North,6.9,-,N/A,,Unknown,350,2013-06-30 15:51:00
12:51 PM,55.0,50.0,83,30.04,-9999.0,NNW,10.4,-,N/A,,Unknown,340,2013-06-30 16:51:00
1:51 PM,55.0,48.9,80,30.04,-9999.0,NNW,9.2,-,N/A,,Unknown,340,2013-06-30 17:51:00
2:51 PM,59.0,50.0,72,30.04,-9999.0,North,13.8,-,N/A,,Unknown,350,2013-06-30 18:51:00
3:51 PM,57.0,48.9,74,30.04,-9999.0,NNW,10.4,-,N/A,,Unknown,340,2013-06-30 19:51:00
4:51 PM,60.1,48.9,67,30.04,-9999.0,North,10.4,-,N/A,,Unknown,350,2013-06-30 20:51:00
5:51 PM,59.0,48.9,69,30.05,-9999.0,North,10.4,-,N/A,,Unknown,350,2013-06-30 21:51:00
6:51 PM,59.0,48.0,67,30.05,-9999.0,NNW,9.2,-,N/A,,Unknown,340,2013-06-30 22:51:00
7:51 PM,57.9,48.9,72,30.05,-9999.0,North,8.1,-,N/A,,Unknown,350,2013-06-30 23:51:00
8:51 PM,55.0,48.0,77,30.06,-9999.0,NNW,6.9,-,N/A,,Unknown,340,2013-07-01 00:51:00
9:51 PM,59.0,50.0,72,30.06,-9999.0,Calm,Calm,-,N/A,,Unknown,0,2013-07-01 01:51:00
10:51 PM,63.0,44.1,50,30.07,-9999.0,Calm,Calm,-,N/A,,Unknown,0,2013-07-01 02:51:00
11:51 PM,64.0,44.1,48,30.08,-9999.0,Calm,Calm,-,N/A,,Unknown,0,2013-07-01 03:51:00